Time;durP1;ratioP1;P1;durP2;ratioP2;P2;SDS_P1;SDS_P2;PMS_P1;PMS_P2;Temp;Humidity;BMP_temperature;BMP_pressure;BME280_temperature;BME280_humidity;BME280_pressure;Samples;Min_cycle;Max_cycle;Signal;HPM_P1;HPM_P2
2023/10/27 00:01:11;;;;;;;12.10;2.27;;;11.50;99.90;;;;;;5026852;28;20815;-76
2023/10/27 00:03:57;;;;;;;9.73;3.27;;;11.50;99.90;;;;;;5019458;28;20448;-76
2023/10/27 00:06:44;;;;;;;14.20;2.83;;;11.50;99.90;;;;;;5025639;28;20449;-76
2023/10/27 00:09:31;;;;;;;14.30;2.90;;;11.50;99.90;;;;;;5016921;28;20794;-77
2023/10/27 00:12:17;;;;;;;19.33;3.30;;;11.50;99.90;;;;;;5023723;28;21027;-76
2023/10/27 00:15:03;;;;;;;7.33;2.37;;;11.50;99.90;;;;;;5024101;28;20418;-76
2023/10/27 00:17:49;;;;;;;7.67;2.60;;;11.50;99.90;;;;;;5019417;28;20526;-76
2023/10/27 00:20:34;;;;;;;5.87;2.23;;;11.50;99.90;;;;;;5018415;28;20997;-76
2023/10/27 00:23:22;;;;;;;7.87;2.43;;;11.50;99.90;;;;;;5021407;28;20425;-76
2023/10/27 00:26:07;;;;;;;10.73;2.23;;;11.50;99.90;;;;;;5025402;28;20806;-76
2023/10/27 00:28:53;;;;;;;7.20;2.27;;;11.40;99.90;;;;;;5031159;28;20451;-76
2023/10/27 00:31:39;;;;;;;9.77;2.30;;;11.40;99.90;;;;;;5022799;28;20571;-76
2023/10/27 00:34:24;;;;;;;9.70;2.40;;;11.40;99.90;;;;;;5025490;28;20427;-76
2023/10/27 00:37:10;;;;;;;8.63;2.40;;;11.50;99.90;;;;;;5032418;28;20465;-76
2023/10/27 00:39:57;;;;;;;8.53;2.30;;;11.50;99.90;;;;;;5026046;28;21681;-76
2023/10/27 00:42:43;;;;;;;7.47;2.37;;;11.50;99.90;;;;;;5023182;28;20495;-76
2023/10/27 00:45:29;;;;;;;8.87;2.03;;;11.50;99.90;;;;;;5025167;28;20449;-76
2023/10/27 00:48:16;;;;;;;11.53;2.60;;;11.50;99.90;;;;;;5025162;28;20491;-76
2023/10/27 00:51:02;;;;;;;7.60;2.07;;;11.50;99.90;;;;;;5027506;28;20477;-75
2023/10/27 00:53:48;;;;;;;10.60;2.10;;;11.50;99.90;;;;;;5032803;28;20480;-76
2023/10/27 00:56:36;;;;;;;7.43;2.20;;;11.50;99.90;;;;;;5029764;28;20994;-76
2023/10/27 00:59:22;;;;;;;7.20;2.00;;;11.60;99.90;;;;;;5027696;28;20591;-76
2023/10/27 01:02:07;;;;;;;6.97;2.20;;;11.60;99.90;;;;;;5025719;28;20849;-76
2023/10/27 01:04:53;;;;;;;13.67;2.40;;;11.60;99.90;;;;;;5025345;28;22009;-76
2023/10/27 01:07:39;;;;;;;11.57;2.70;;;11.50;99.90;;;;;;5026271;28;20442;-76
2023/10/27 01:10:25;;;;;;;11.73;2.43;;;11.50;99.90;;;;;;5025367;28;20430;-76
2023/10/27 01:13:12;;;;;;;7.97;2.50;;;11.50;99.90;;;;;;5026629;28;20418;-76
2023/10/27 01:15:57;;;;;;;15.50;2.73;;;11.50;99.90;;;;;;5021531;28;20767;-76
2023/10/27 01:18:43;;;;;;;10.60;2.50;;;11.50;99.90;;;;;;5025497;28;20475;-76
2023/10/27 01:21:29;;;;;;;11.30;2.20;;;11.50;99.90;;;;;;5031149;28;20466;-76
2023/10/27 01:24:16;;;;;;;10.60;2.20;;;11.50;99.90;;;;;;5032330;28;20446;-76
2023/10/27 01:27:01;;;;;;;12.63;3.07;;;11.40;99.90;;;;;;5030893;28;20418;-76
2023/10/27 01:29:47;;;;;;;11.80;3.10;;;11.50;99.90;;;;;;5023902;28;20410;-76
2023/10/27 01:32:33;;;;;;;14.10;3.07;;;11.60;99.90;;;;;;5023685;28;20422;-76
2023/10/27 01:35:19;;;;;;;15.40;2.73;;;11.60;99.90;;;;;;5025416;28;20431;-76
2023/10/27 01:38:04;;;;;;;18.27;2.77;;;11.60;99.90;;;;;;5022848;28;20919;-76
2023/10/27 01:40:51;;;;;;;9.13;2.07;;;11.60;99.90;;;;;;5028620;28;20790;-76
2023/10/27 01:43:37;;;;;;;11.43;2.20;;;11.60;99.90;;;;;;5025006;28;20422;-76
2023/10/27 01:46:23;;;;;;;14.77;2.30;;;11.60;99.90;;;;;;5032235;28;20716;-76
2023/10/27 01:49:08;;;;;;;6.67;2.07;;;11.60;99.90;;;;;;5023360;28;20945;-76
2023/10/27 01:51:54;;;;;;;9.97;2.53;;;11.70;99.90;;;;;;5022087;28;20467;-76
2023/10/27 01:54:39;;;;;;;24.73;3.20;;;11.70;99.90;;;;;;5028030;28;20427;-76
2023/10/27 01:57:26;;;;;;;10.77;3.87;;;11.70;99.90;;;;;;5023731;28;20488;-76
2023/10/27 02:00:13;;;;;;;26.77;3.43;;;11.60;99.90;;;;;;5023107;28;20451;-76
2023/10/27 02:02:59;;;;;;;5.47;2.40;;;11.70;99.90;;;;;;5024249;28;21043;-75
2023/10/27 02:05:46;;;;;;;28.57;3.27;;;11.70;99.90;;;;;;5029374;28;20442;-76
2023/10/27 02:08:32;;;;;;;6.20;2.27;;;11.70;99.90;;;;;;5025450;28;20455;-76
2023/10/27 02:11:17;;;;;;;8.63;2.60;;;11.80;99.90;;;;;;5024558;28;20465;-76
2023/10/27 02:14:05;;;;;;;13.00;2.93;;;11.70;99.90;;;;;;5021670;28;20492;-76
2023/10/27 02:16:50;;;;;;;16.03;4.67;;;11.70;99.90;;;;;;5028425;28;20546;-76
2023/10/27 02:19:36;;;;;;;28.43;10.30;;;11.80;99.90;;;;;;5031644;28;20546;-76
2023/10/27 02:22:22;;;;;;;25.60;11.23;;;11.80;99.90;;;;;;5022736;28;20500;-76
2023/10/27 02:25:08;;;;;;;22.90;10.47;;;11.90;99.90;;;;;;5022280;28;20418;-76
2023/10/27 02:27:54;;;;;;;25.00;10.50;;;11.90;99.90;;;;;;5024056;28;20572;-76
2023/10/27 02:30:41;;;;;;;25.10;10.10;;;12.00;99.90;;;;;;5024335;28;20479;-76
2023/10/27 02:33:26;;;;;;;26.33;9.13;;;12.00;99.90;;;;;;5027951;28;20453;-76
2023/10/27 02:36:12;;;;;;;23.73;9.03;;;12.10;99.90;;;;;;5027605;28;20945;-76
2023/10/27 02:38:58;;;;;;;17.53;8.10;;;12.10;99.90;;;;;;5024084;28;20475;-76
2023/10/27 02:41:43;;;;;;;14.93;6.67;;;12.10;99.90;;;;;;5027111;28;21005;-76
2023/10/27 02:44:29;;;;;;;20.57;7.50;;;12.10;99.90;;;;;;5022276;28;20421;-76
2023/10/27 02:47:16;;;;;;;20.00;6.57;;;12.10;99.90;;;;;;5025927;28;20422;-75
2023/10/27 02:50:02;;;;;;;19.63;5.83;;;12.10;99.90;;;;;;5024410;28;21097;-75
2023/10/27 02:52:47;;;;;;;12.63;5.30;;;12.10;99.90;;;;;;5020994;28;20418;-76
2023/10/27 02:55:34;;;;;;;12.93;5.30;;;12.10;99.90;;;;;;5022594;28;20451;-76
2023/10/27 02:58:20;;;;;;;12.17;4.50;;;12.10;99.90;;;;;;5022756;28;20482;-76
2023/10/27 03:01:09;;;;;;;11.73;4.67;;;12.20;99.90;;;;;;5027215;28;20446;-76
2023/10/27 03:03:56;;;;;;;21.63;5.37;;;12.10;99.90;;;;;;5018471;28;20426;-76
2023/10/27 03:06:44;;;;;;;11.37;4.37;;;12.10;99.90;;;;;;5026898;28;20437;-77
2023/10/27 03:09:29;;;;;;;11.77;5.20;;;12.10;99.90;;;;;;5024046;28;20508;-76
2023/10/27 03:12:16;;;;;;;15.53;5.30;;;12.10;99.90;;;;;;5034578;28;20534;-76
2023/10/27 03:15:02;;;;;;;13.10;4.20;;;12.10;99.90;;;;;;5023427;28;20553;-76
2023/10/27 03:17:48;;;;;;;5.87;3.53;;;12.10;99.90;;;;;;5025743;28;20448;-76
2023/10/27 03:20:36;;;;;;;12.20;3.47;;;12.10;99.90;;;;;;4980319;28;1164075;-76
2023/10/27 03:23:21;;;;;;;10.03;3.40;;;12.20;99.90;;;;;;5028088;28;20436;-76
2023/10/27 03:26:07;;;;;;;8.70;4.60;;;12.20;99.90;;;;;;5020789;28;20472;-76
2023/10/27 03:28:53;;;;;;;7.07;3.00;;;12.20;99.90;;;;;;5022386;28;20436;-76
2023/10/27 03:31:39;;;;;;;18.73;4.70;;;12.20;99.90;;;;;;5022904;28;20462;-76
2023/10/27 03:34:24;;;;;;;9.27;4.00;;;12.20;99.90;;;;;;5025522;28;20463;-76
2023/10/27 03:37:11;;;;;;;7.83;3.10;;;12.30;99.90;;;;;;5024837;28;20584;-76
2023/10/27 03:39:57;;;;;;;5.93;2.87;;;12.20;99.90;;;;;;5028884;28;20563;-76
2023/10/27 03:42:43;;;;;;;11.43;3.07;;;12.20;99.90;;;;;;5027733;28;20864;-75
2023/10/27 03:45:28;;;;;;;9.53;3.60;;;12.20;99.90;;;;;;5027128;28;20426;-76
2023/10/27 03:48:14;;;;;;;7.10;2.70;;;12.10;99.90;;;;;;5023214;28;20443;-76
2023/10/27 03:51:03;;;;;;;5.03;2.10;;;12.10;99.90;;;;;;5030202;28;20479;-76
2023/10/27 03:53:50;;;;;;;11.93;3.50;;;12.10;99.90;;;;;;5029028;28;20531;-76
2023/10/27 03:56:36;;;;;;;10.83;3.57;;;12.10;99.90;;;;;;5028505;28;20420;-76
2023/10/27 03:59:22;;;;;;;13.10;3.40;;;12.10;99.90;;;;;;5026085;28;20450;-76
2023/10/27 04:02:07;;;;;;;16.07;3.07;;;12.10;99.90;;;;;;5028184;28;20467;-76
2023/10/27 04:04:53;;;;;;;7.73;2.90;;;12.10;99.90;;;;;;5026927;28;20550;-77
2023/10/27 04:07:39;;;;;;;9.30;2.83;;;12.10;99.90;;;;;;5028375;28;20781;-76
2023/10/27 04:10:26;;;;;;;7.87;2.83;;;12.10;99.90;;;;;;5028791;28;20513;-76
2023/10/27 04:13:14;;;;;;;5.40;3.10;;;12.10;99.90;;;;;;5036146;28;20493;-76
2023/10/27 04:16:00;;;;;;;7.00;2.70;;;12.10;99.90;;;;;;5025514;28;20497;-76
2023/10/27 04:18:45;;;;;;;6.23;3.10;;;12.10;99.90;;;;;;5037886;28;20603;-76
2023/10/27 04:21:31;;;;;;;10.33;3.20;;;12.10;99.90;;;;;;5027484;28;20485;-77
2023/10/27 04:24:17;;;;;;;16.27;3.30;;;12.10;99.90;;;;;;5023408;28;20435;-77
2023/10/27 04:27:04;;;;;;;11.70;3.20;;;12.10;99.90;;;;;;5027844;28;20499;-77
2023/10/27 04:29:50;;;;;;;13.27;2.43;;;12.10;99.90;;;;;;5031077;28;20511;-77
2023/10/27 04:32:36;;;;;;;11.40;4.17;;;12.10;99.90;;;;;;5035755;28;20991;-77
2023/10/27 04:35:22;;;;;;;6.17;3.50;;;12.10;99.90;;;;;;5024781;28;20446;-76
2023/10/27 04:38:08;;;;;;;8.80;3.60;;;12.10;99.90;;;;;;5032901;28;20462;-77
2023/10/27 04:40:54;;;;;;;9.80;2.60;;;12.10;99.90;;;;;;5033113;28;20621;-77
2023/10/27 04:43:41;;;;;;;9.40;3.00;;;12.10;99.90;;;;;;5024692;28;20564;-77
2023/10/27 04:46:27;;;;;;;18.47;3.90;;;12.10;99.90;;;;;;5026760;28;21214;-77
2023/10/27 04:49:12;;;;;;;13.53;2.93;;;12.10;99.90;;;;;;5027540;28;20418;-76
2023/10/27 04:51:59;;;;;;;10.53;3.30;;;12.10;99.90;;;;;;5029172;28;20554;-77
2023/10/27 04:54:45;;;;;;;14.73;3.13;;;12.00;99.90;;;;;;5029461;28;20430;-77
2023/10/27 04:57:31;;;;;;;7.70;2.43;;;11.90;99.90;;;;;;5029567;28;20923;-76
2023/10/27 05:00:19;;;;;;;12.03;2.80;;;11.90;99.90;;;;;;5028832;28;20474;-77
2023/10/27 05:03:05;;;;;;;9.00;2.90;;;11.90;99.90;;;;;;5031250;28;20452;-76
2023/10/27 05:05:51;;;;;;;4.10;2.33;;;12.00;99.90;;;;;;5029754;28;20439;-76
2023/10/27 05:08:37;;;;;;;15.57;3.57;;;11.90;99.90;;;;;;5021588;28;20429;-77
2023/10/27 05:11:23;;;;;;;5.27;2.83;;;11.90;99.90;;;;;;5027776;28;20533;-77
2023/10/27 05:14:08;;;;;;;9.17;3.60;;;11.90;99.90;;;;;;5026617;28;20515;-77
2023/10/27 05:16:56;;;;;;;9.00;3.77;;;11.90;99.90;;;;;;5026481;28;20792;-77
2023/10/27 05:19:41;;;;;;;8.70;4.13;;;11.90;99.90;;;;;;5021557;28;20573;-77
2023/10/27 05:22:27;;;;;;;8.83;3.60;;;11.90;99.90;;;;;;5029352;28;20466;-76
2023/10/27 05:25:12;;;;;;;5.57;3.30;;;11.90;99.90;;;;;;5032520;28;20418;-77
2023/10/27 05:27:58;;;;;;;6.87;3.27;;;11.90;99.90;;;;;;5027329;28;20451;-77
2023/10/27 05:30:46;;;;;;;5.43;3.20;;;11.80;99.90;;;;;;5027983;28;20554;-77
2023/10/27 05:33:33;;;;;;;6.40;4.00;;;11.80;99.90;;;;;;5024896;28;20604;-77
2023/10/27 05:36:19;;;;;;;6.77;2.83;;;11.80;99.90;;;;;;5028058;28;20430;-77
2023/10/27 05:39:04;;;;;;;4.97;2.83;;;11.80;99.90;;;;;;5030071;28;20463;-77
2023/10/27 05:41:50;;;;;;;4.67;2.80;;;11.80;99.90;;;;;;5027574;28;21019;-77
2023/10/27 05:44:36;;;;;;;6.63;2.83;;;11.80;99.90;;;;;;5029854;28;20442;-75
2023/10/27 05:47:22;;;;;;;4.67;1.87;;;11.70;99.90;;;;;;5030451;28;20530;-77
2023/10/27 05:50:10;;;;;;;6.90;2.60;;;11.70;99.90;;;;;;5024633;28;20452;-77
2023/10/27 05:52:56;;;;;;;5.90;2.70;;;11.70;99.90;;;;;;5032249;28;20517;-77
2023/10/27 05:55:41;;;;;;;5.03;2.77;;;11.70;99.90;;;;;;5029479;28;20429;-77
2023/10/27 05:58:32;;;;;;;3.50;2.90;;;11.80;99.90;;;;;;5036500;28;20482;-77
2023/10/27 06:01:18;;;;;;;5.90;3.07;;;11.80;99.90;;;;;;5030748;28;20823;-75
2023/10/27 06:04:04;;;;;;;6.03;2.73;;;11.80;99.90;;;;;;5022196;28;20451;-77
2023/10/27 06:06:51;;;;;;;4.10;2.50;;;11.80;99.90;;;;;;5027352;28;20522;-76
2023/10/27 06:09:37;;;;;;;4.50;2.57;;;11.70;99.90;;;;;;5026715;28;20445;-77
2023/10/27 06:12:23;;;;;;;9.47;2.87;;;11.70;99.90;;;;;;5023043;28;20548;-77
2023/10/27 06:15:09;;;;;;;3.60;2.50;;;11.70;99.90;;;;;;5026894;28;21021;-76
2023/10/27 06:17:55;;;;;;;4.60;2.37;;;11.80;99.90;;;;;;5019535;28;20446;-77
2023/10/27 06:20:41;;;;;;;5.77;2.50;;;11.90;99.90;;;;;;5022791;28;20931;-77
2023/10/27 06:23:28;;;;;;;3.73;1.60;;;11.90;99.90;;;;;;5022145;28;20446;-76
2023/10/27 06:26:13;;;;;;;9.70;1.90;;;11.90;99.90;;;;;;5030439;28;20455;-76
2023/10/27 06:28:59;;;;;;;6.10;2.13;;;11.90;99.90;;;;;;5028047;28;20854;-76
2023/10/27 06:31:45;;;;;;;6.37;2.07;;;11.80;99.90;;;;;;5028597;28;20975;-76
2023/10/27 06:34:31;;;;;;;3.03;1.50;;;11.80;99.90;;;;;;5026204;28;20470;-76
2023/10/27 06:37:16;;;;;;;3.03;1.77;;;11.80;99.90;;;;;;5025308;28;20431;-76
2023/10/27 06:40:04;;;;;;;3.63;2.03;;;11.70;99.90;;;;;;5027592;28;20514;-76
2023/10/27 06:42:50;;;;;;;4.90;2.30;;;11.70;99.90;;;;;;5026162;28;20463;-76
2023/10/27 06:45:36;;;;;;;4.83;2.17;;;11.70;99.90;;;;;;5020969;28;20538;-76
2023/10/27 06:48:22;;;;;;;4.20;2.47;;;11.80;99.90;;;;;;5035792;28;20610;-76
2023/10/27 06:51:08;;;;;;;2.37;1.77;;;11.80;99.90;;;;;;5028061;28;20484;-76
2023/10/27 06:53:53;;;;;;;4.20;1.80;;;11.80;99.90;;;;;;5032429;28;20425;-75
2023/10/27 06:56:40;;;;;;;2.03;1.40;;;11.80;99.90;;;;;;5025723;28;20451;-77
2023/10/27 06:59:26;;;;;;;2.73;1.20;;;11.80;99.90;;;;;;5022392;28;20448;-76
2023/10/27 07:02:12;;;;;;;3.60;1.10;;;11.80;99.90;;;;;;5021767;28;20804;-77
2023/10/27 07:04:58;;;;;;;1.80;1.30;;;11.80;99.90;;;;;;5036592;28;20795;-75
2023/10/27 07:07:43;;;;;;;2.37;1.00;;;11.80;99.90;;;;;;5043761;28;20400;-77
2023/10/27 07:10:30;;;;;;;4.97;2.20;;;11.80;99.90;;;;;;5044189;28;20511;-77
2023/10/27 07:13:17;;;;;;;1.83;1.00;;;11.80;99.90;;;;;;5037247;28;20421;-77
2023/10/27 07:16:03;;;;;;;2.80;1.20;;;11.80;99.90;;;;;;5024066;28;20599;-77
2023/10/27 07:18:49;;;;;;;1.70;0.93;;;11.70;99.90;;;;;;5028668;28;20416;-77
2023/10/27 07:21:35;;;;;;;3.97;1.33;;;11.80;99.90;;;;;;5024727;28;20454;-76
2023/10/27 07:24:21;;;;;;;2.97;1.37;;;11.80;99.90;;;;;;5020994;28;21008;-77
2023/10/27 07:27:07;;;;;;;3.30;1.63;;;11.80;99.90;;;;;;5021950;28;20487;-77
2023/10/27 07:29:55;;;;;;;5.77;1.67;;;11.80;99.90;;;;;;5025597;28;21029;-77
2023/10/27 07:32:40;;;;;;;8.93;1.33;;;11.80;99.90;;;;;;5022614;28;20449;-77
2023/10/27 07:35:26;;;;;;;3.47;1.60;;;11.90;99.90;;;;;;5032586;28;20502;-76
2023/10/27 07:38:12;;;;;;;3.20;1.70;;;11.80;99.90;;;;;;5023151;28;20451;-76
2023/10/27 07:40:58;;;;;;;4.00;1.80;;;11.80;99.90;;;;;;5022433;28;20589;-77
2023/10/27 07:43:43;;;;;;;3.57;1.20;;;11.80;99.90;;;;;;5024793;28;20442;-77
2023/10/27 07:46:31;;;;;;;6.00;2.03;;;11.80;99.90;;;;;;5022049;28;20434;-76
2023/10/27 07:49:17;;;;;;;2.60;1.50;;;11.70;99.90;;;;;;5026181;28;20598;-77
2023/10/27 07:52:04;;;;;;;2.90;1.70;;;11.70;99.90;;;;;;5022601;28;20441;-77
2023/10/27 07:54:50;;;;;;;11.70;1.70;;;11.70;99.90;;;;;;5026274;28;20439;-76
2023/10/27 07:57:36;;;;;;;9.23;2.60;;;11.70;99.90;;;;;;5021897;28;20790;-75
2023/10/27 08:00:22;;;;;;;5.47;1.47;;;11.80;99.90;;;;;;5020553;28;20857;-77
2023/10/27 08:03:09;;;;;;;1.70;1.20;;;11.80;99.90;;;;;;5022153;28;20818;-77
2023/10/27 08:05:55;;;;;;;1.93;1.37;;;11.80;99.90;;;;;;5025755;28;20514;-75
2023/10/27 08:08:41;;;;;;;2.80;1.73;;;11.70;99.90;;;;;;5023013;28;20471;-75
2023/10/27 08:11:26;;;;;;;3.63;1.43;;;11.70;99.90;;;;;;5022198;28;20489;-77
2023/10/27 08:14:12;;;;;;;2.40;1.53;;;11.60;99.90;;;;;;5022897;28;20603;-77
2023/10/27 08:16:58;;;;;;;1.80;1.40;;;11.60;99.90;;;;;;5025213;28;20788;-77
2023/10/27 08:19:45;;;;;;;4.43;1.70;;;11.60;99.90;;;;;;5022999;28;20810;-77
2023/10/27 08:22:32;;;;;;;3.50;1.80;;;11.60;99.90;;;;;;5023571;28;20978;-77
2023/10/27 08:25:22;;;;;;;3.67;1.87;;;11.60;99.90;;;;;;5028028;28;20456;-77
2023/10/27 08:28:08;;;;;;;2.97;2.00;;;11.50;99.90;;;;;;5025161;28;20451;-76
2023/10/27 08:30:56;;;;;;;2.70;1.77;;;11.50;99.90;;;;;;5018192;28;20593;-76
2023/10/27 08:33:41;;;;;;;4.23;2.27;;;11.50;99.90;;;;;;5024372;28;20464;-74
2023/10/27 08:36:29;;;;;;;10.33;2.10;;;11.60;99.90;;;;;;5019939;28;21002;-76
2023/10/27 08:39:15;;;;;;;7.63;2.27;;;11.60;99.90;;;;;;5022578;28;20421;-77
2023/10/27 08:42:01;;;;;;;3.70;1.80;;;11.70;99.90;;;;;;5019529;28;20490;-77
2023/10/27 08:44:46;;;;;;;3.73;1.63;;;11.60;99.90;;;;;;5022366;28;20452;-76
2023/10/27 08:47:34;;;;;;;3.70;1.20;;;11.60;99.90;;;;;;5025597;28;20961;-76
2023/10/27 08:50:20;;;;;;;3.43;1.30;;;11.60;99.90;;;;;;5029182;28;20438;-77
2023/10/27 08:53:10;;;;;;;6.30;1.87;;;11.50;99.90;;;;;;5021571;28;20471;-75
2023/10/27 08:55:57;;;;;;;3.23;1.30;;;11.60;99.90;;;;;;5022306;28;20446;-75
2023/10/27 08:58:50;;;;;;;5.97;1.40;;;11.60;99.90;;;;;;5022918;28;20502;-74
2023/10/27 09:01:35;;;;;;;1.60;1.03;;;11.60;99.90;;;;;;5027417;28;20497;-77
2023/10/27 09:04:23;;;;;;;2.50;0.93;;;11.60;99.90;;;;;;5018303;28;20816;-77
2023/10/27 09:07:09;;;;;;;1.40;0.87;;;11.70;99.90;;;;;;5020716;28;20430;-77
2023/10/27 09:09:56;;;;;;;2.07;1.20;;;11.70;99.90;;;;;;5019359;28;20451;-74
2023/10/27 09:12:42;;;;;;;2.47;0.90;;;11.70;99.90;;;;;;5023318;28;20421;-77
2023/10/27 09:15:41;;;;;;;1.97;1.13;;;11.70;99.90;;;;;;5021658;28;20473;-77
2023/10/27 09:18:35;;;;;;;1.93;1.00;;;11.70;99.90;;;;;;5021567;28;20421;-77
2023/10/27 09:21:32;;;;;;;1.47;0.93;;;11.80;99.90;;;;;;5020455;28;20533;-76
2023/10/27 09:24:25;;;;;;;2.20;1.03;;;11.80;99.90;;;;;;5021765;28;20640;-76
2023/10/27 09:27:14;;;;;;;2.63;1.07;;;11.80;99.90;;;;;;5019949;28;21077;-76
2023/10/27 09:29:59;;;;;;;2.20;1.23;;;11.80;99.90;;;;;;5021416;28;20452;-77
2023/10/27 09:32:45;;;;;;;1.93;1.30;;;11.80;99.90;;;;;;5019077;28;20430;-76
2023/10/27 09:35:32;;;;;;;2.20;1.27;;;11.90;99.90;;;;;;5022557;28;20521;-74
2023/10/27 09:38:18;;;;;;;3.60;0.90;;;11.90;99.90;;;;;;5025225;28;20424;-76
2023/10/27 09:41:08;;;;;;;11.33;1.53;;;12.00;99.90;;;;;;5022418;28;21054;-77
2023/10/27 09:43:56;;;;;;;2.10;1.17;;;11.90;99.90;;;;;;5043562;28;20438;-76
2023/10/27 09:46:49;;;;;;;2.80;1.40;;;11.80;99.90;;;;;;5037730;28;20409;-77
2023/10/27 09:49:39;;;;;;;3.07;1.20;;;11.90;99.90;;;;;;5023883;28;20575;-77
2023/10/27 09:52:29;;;;;;;3.80;1.40;;;11.90;99.90;;;;;;5031870;28;20954;-77
2023/10/27 09:55:17;;;;;;;3.33;1.50;;;11.90;99.90;;;;;;5036750;28;20443;-77
2023/10/27 09:58:03;;;;;;;1.80;1.10;;;12.00;99.90;;;;;;5038612;28;20486;-77
2023/10/27 10:00:50;;;;;;;2.30;1.60;;;12.00;99.90;;;;;;5039809;28;20486;-77
2023/10/27 10:03:41;;;;;;;4.27;1.57;;;12.00;99.90;;;;;;5036947;28;20781;-77
2023/10/27 10:06:32;;;;;;;2.67;2.17;;;12.00;99.90;;;;;;5035697;28;20581;-76
2023/10/27 10:09:19;;;;;;;2.57;1.83;;;12.10;99.90;;;;;;5035024;28;20937;-77
2023/10/27 10:12:05;;;;;;;8.30;2.43;;;12.00;99.90;;;;;;5041441;28;20476;-76
2023/10/27 10:14:51;;;;;;;4.03;1.53;;;12.00;99.90;;;;;;5040564;28;20925;-77
2023/10/27 10:17:39;;;;;;;5.43;2.00;;;12.10;99.90;;;;;;5027851;28;20581;-76
2023/10/27 10:20:56;;;;;;;4.27;2.80;;;12.20;99.90;;;;;;5026998;28;20470;-75
2023/10/27 10:24:10;;;;;;;3.53;1.70;;;12.20;99.90;;;;;;5032700;28;20455;-75
2023/10/27 10:27:10;;;;;;;3.90;2.90;;;12.30;99.90;;;;;;5023872;28;20448;-74
2023/10/27 10:30:19;;;;;;;2.53;1.90;;;12.30;99.90;;;;;;5029739;28;20523;-74
2023/10/27 10:33:22;;;;;;;3.10;1.73;;;12.30;99.90;;;;;;5030098;28;20503;-75
2023/10/27 10:36:25;;;;;;;4.33;1.70;;;12.30;99.90;;;;;;5030377;28;20974;-75
2023/10/27 10:39:13;;;;;;;3.60;1.93;;;12.40;99.90;;;;;;5033861;28;20976;-75
2023/10/27 10:42:02;;;;;;;9.87;1.90;;;12.40;99.90;;;;;;5031522;28;20462;-75
2023/10/27 10:44:48;;;;;;;3.90;2.23;;;12.50;99.90;;;;;;5025109;28;20418;-75
2023/10/27 10:47:33;;;;;;;4.77;2.10;;;12.50;99.90;;;;;;5029945;28;20480;-75
2023/10/27 10:50:29;;;;;;;3.30;1.57;;;12.60;99.90;;;;;;5034614;28;20451;-74
2023/10/27 10:53:16;;;;;;;3.30;1.80;;;12.60;99.90;;;;;;5032716;28;20437;-75
2023/10/27 10:56:02;;;;;;;3.93;1.90;;;12.70;99.90;;;;;;5035623;28;20417;-74
2023/10/27 10:58:48;;;;;;;2.73;1.60;;;12.70;99.90;;;;;;5033380;28;20924;-75
2023/10/27 11:01:34;;;;;;;6.93;2.70;;;12.70;99.90;;;;;;5027191;28;20522;-75
2023/10/27 11:04:28;;;;;;;2.97;1.50;;;12.80;99.90;;;;;;5029336;28;21006;-76
2023/10/27 11:07:16;;;;;;;2.83;1.37;;;12.90;99.90;;;;;;5028402;28;20455;-75
2023/10/27 11:10:17;;;;;;;2.47;1.37;;;12.90;99.90;;;;;;5033123;28;20421;-75
2023/10/27 11:13:04;;;;;;;4.23;2.13;;;13.00;99.90;;;;;;5039466;28;20830;-74
2023/10/27 11:15:50;;;;;;;3.30;1.47;;;13.00;99.90;;;;;;5036525;28;20498;-75
2023/10/27 11:18:36;;;;;;;4.07;1.83;;;13.00;99.90;;;;;;5025547;28;20415;-75
2023/10/27 11:21:24;;;;;;;7.70;2.73;;;13.00;99.90;;;;;;5032512;28;20476;-75
2023/10/27 11:24:12;;;;;;;5.80;1.80;;;12.90;99.90;;;;;;5034139;28;20467;-75
2023/10/27 11:26:57;;;;;;;9.77;1.97;;;12.70;99.90;;;;;;5042719;28;20446;-75
2023/10/27 11:29:57;;;;;;;7.27;2.43;;;12.60;99.90;;;;;;5025437;28;20447;-75
2023/10/27 11:32:43;;;;;;;4.87;2.60;;;12.60;99.90;;;;;;5026990;28;20444;-75
2023/10/27 11:35:28;;;;;;;4.37;1.90;;;12.50;99.90;;;;;;5030402;28;20821;-75
2023/10/27 11:38:14;;;;;;;4.63;2.30;;;12.40;99.90;;;;;;5029211;28;21097;-75
2023/10/27 11:41:14;;;;;;;5.10;1.63;;;12.40;99.90;;;;;;5031652;28;20934;-75
2023/10/27 11:43:59;;;;;;;6.13;2.10;;;12.30;99.90;;;;;;5026425;28;20594;-75
2023/10/27 11:46:46;;;;;;;2.40;1.77;;;12.40;99.90;;;;;;5032423;28;21127;-75
2023/10/27 11:49:32;;;;;;;4.97;2.50;;;12.40;99.90;;;;;;5027882;28;20417;-75
2023/10/27 11:52:19;;;;;;;3.40;1.80;;;12.40;99.90;;;;;;5032329;28;20443;-74
2023/10/27 11:55:05;;;;;;;11.20;2.83;;;12.50;99.90;;;;;;5036344;28;20451;-75
2023/10/27 11:57:52;;;;;;;12.87;2.40;;;12.50;99.90;;;;;;5034758;28;21808;-75
2023/10/27 12:00:37;;;;;;;7.73;2.60;;;12.60;99.90;;;;;;5033975;28;20994;-75
2023/10/27 12:03:23;;;;;;;3.83;2.13;;;12.70;99.90;;;;;;5039223;28;20461;-75
2023/10/27 12:06:09;;;;;;;5.17;2.30;;;12.80;99.90;;;;;;5034584;28;20450;-75
2023/10/27 12:08:55;;;;;;;8.13;1.97;;;12.90;99.90;;;;;;5030444;28;20434;-75
2023/10/27 12:11:42;;;;;;;6.13;2.67;;;12.90;99.90;;;;;;5032653;28;20559;-75
2023/10/27 12:14:29;;;;;;;8.20;3.27;;;13.00;99.90;;;;;;5037950;28;20458;-75
2023/10/27 12:17:14;;;;;;;6.70;2.80;;;13.00;99.90;;;;;;5026216;28;20533;-75
2023/10/27 12:20:00;;;;;;;7.60;2.90;;;13.00;99.90;;;;;;5031095;28;20539;-75
2023/10/27 12:22:46;;;;;;;7.73;2.20;;;13.00;99.90;;;;;;5023049;28;20491;-75
2023/10/27 12:25:32;;;;;;;9.63;2.10;;;13.00;99.90;;;;;;5019852;28;20545;-75
2023/10/27 12:28:18;;;;;;;5.67;1.90;;;13.00;99.90;;;;;;5024875;28;20439;-75
2023/10/27 12:31:05;;;;;;;8.67;2.20;;;12.80;99.90;;;;;;5031486;28;20891;-75
2023/10/27 12:33:51;;;;;;;6.37;2.00;;;12.80;99.90;;;;;;5034156;28;20444;-75
2023/10/27 12:36:37;;;;;;;4.90;1.73;;;12.80;99.90;;;;;;5028214;28;20454;-75
2023/10/27 12:39:23;;;;;;;5.13;1.43;;;12.80;99.90;;;;;;5027666;28;20978;-74
2023/10/27 12:42:09;;;;;;;4.00;1.23;;;12.80;99.90;;;;;;5029216;28;20483;-75
2023/10/27 12:44:55;;;;;;;9.07;1.20;;;12.70;99.90;;;;;;5029110;28;20455;-75
2023/10/27 12:47:44;;;;;;;8.87;1.50;;;12.60;99.90;;;;;;5039665;28;20585;-75
2023/10/27 12:50:30;;;;;;;3.67;1.23;;;12.60;99.90;;;;;;5038543;28;20462;-75
2023/10/27 12:53:16;;;;;;;5.30;1.40;;;12.70;99.90;;;;;;5040939;28;20982;-75
2023/10/27 12:56:02;;;;;;;6.50;1.30;;;12.70;99.90;;;;;;5036193;28;20444;-76
2023/10/27 12:58:48;;;;;;;3.17;1.40;;;12.80;99.90;;;;;;5025176;28;20471;-74
2023/10/27 13:01:33;;;;;;;5.93;2.33;;;12.90;99.90;;;;;;5031826;28;20475;-75
2023/10/27 13:04:20;;;;;;;4.73;1.60;;;12.90;99.90;;;;;;5032414;28;20463;-74
2023/10/27 13:07:07;;;;;;;4.83;1.60;;;13.00;99.90;;;;;;5032551;28;20815;-75
2023/10/27 13:09:53;;;;;;;5.57;1.63;;;13.10;99.90;;;;;;5024454;28;20476;-74
2023/10/27 13:12:39;;;;;;;5.87;1.97;;;13.10;99.90;;;;;;5030484;28;20915;-75
2023/10/27 13:15:24;;;;;;;3.57;1.20;;;13.20;99.90;;;;;;5041914;28;20431;-75
2023/10/27 13:18:11;;;;;;;7.10;1.50;;;13.30;99.90;;;;;;5042499;28;20440;-75
2023/10/27 13:20:57;;;;;;;4.73;1.60;;;13.30;99.90;;;;;;5050170;28;20565;-75
2023/10/27 13:23:43;;;;;;;4.40;1.57;;;13.20;99.90;;;;;;5044752;28;20432;-75
2023/10/27 13:26:29;;;;;;;5.10;0.97;;;13.20;99.90;;;;;;5049647;28;20777;-75
2023/10/27 13:29:15;;;;;;;3.67;1.23;;;13.20;99.90;;;;;;5042305;28;20435;-75
2023/10/27 13:32:01;;;;;;;4.87;1.60;;;13.20;99.90;;;;;;5051876;28;20541;-76
2023/10/27 13:34:46;;;;;;;5.00;1.50;;;13.10;99.90;;;;;;5045730;28;20566;-74
2023/10/27 13:37:33;;;;;;;4.33;1.40;;;13.10;99.90;;;;;;5042421;28;20435;-75
2023/10/27 13:40:19;;;;;;;6.07;1.40;;;13.00;99.90;;;;;;5046177;28;20432;-75
2023/10/27 13:43:05;;;;;;;5.03;1.90;;;13.10;99.90;;;;;;5048931;28;20483;-75
2023/10/27 13:45:59;;;;;;;7.70;1.93;;;13.20;99.90;;;;;;5041077;28;20435;-75
2023/10/27 13:48:45;;;;;;;6.97;1.90;;;13.20;99.90;;;;;;5045603;28;20416;-76
2023/10/27 13:51:31;;;;;;;3.00;1.33;;;13.20;99.90;;;;;;5049538;28;21066;-75
2023/10/27 13:54:18;;;;;;;4.60;1.80;;;13.20;99.90;;;;;;5047483;28;20431;-75
2023/10/27 13:57:05;;;;;;;3.70;1.67;;;13.10;99.90;;;;;;5044524;28;20438;-75
2023/10/27 13:59:50;;;;;;;5.30;1.80;;;13.10;99.90;;;;;;5046140;28;20545;-75
2023/10/27 14:02:36;;;;;;;2.70;1.50;;;13.10;99.90;;;;;;5042811;28;20475;-75
2023/10/27 14:05:22;;;;;;;7.80;1.90;;;13.10;99.90;;;;;;5049381;28;20422;-75
2023/10/27 14:08:09;;;;;;;4.17;2.00;;;13.10;99.90;;;;;;5043202;28;20482;-75
2023/10/27 14:10:56;;;;;;;5.77;1.73;;;13.10;99.90;;;;;;5046302;28;20454;-75
2023/10/27 14:13:44;;;;;;;4.10;1.70;;;13.10;99.90;;;;;;5044592;28;20501;-75
2023/10/27 14:16:30;;;;;;;9.30;2.40;;;13.10;99.90;;;;;;5047520;28;20436;-75
2023/10/27 14:19:15;;;;;;;7.13;1.90;;;13.10;99.90;;;;;;5047895;28;20437;-74
2023/10/27 14:22:01;;;;;;;5.23;1.63;;;13.10;99.90;;;;;;5049550;28;20532;-74
2023/10/27 14:24:47;;;;;;;3.27;1.70;;;13.00;99.90;;;;;;5045413;28;20502;-75